createdAt,value
2022-09-24T00:02:16.561Z,1.20
2022-09-24T00:04:42.973Z,1.30
2022-09-24T00:07:09.317Z,1.58
2022-09-24T00:09:35.659Z,1.27
2022-09-24T00:12:02.821Z,1.60
2022-09-24T00:14:29.957Z,1.58
2022-09-24T00:16:56.325Z,1.38
2022-09-24T00:19:22.696Z,1.45
2022-09-24T00:21:49.094Z,1.55
2022-09-24T00:24:36.796Z,1.40
2022-09-24T00:27:04.372Z,1.50
2022-09-24T00:29:34.268Z,1.20
2022-09-24T00:32:01.538Z,1.30
2022-09-24T00:34:27.965Z,1.30
2022-09-24T00:36:54.465Z,1.65
2022-09-24T00:39:23.912Z,1.67
2022-09-24T00:41:50.236Z,1.42
2022-09-24T00:44:35.325Z,1.30
2022-09-24T00:47:01.822Z,1.52
2022-09-24T00:49:28.215Z,1.45
2022-09-24T00:51:54.791Z,1.40
2022-09-24T00:54:22.794Z,1.20
2022-09-24T00:56:51.210Z,1.48
2022-09-24T00:59:19.324Z,1.60
2022-09-24T01:01:47.151Z,1.60
2022-09-24T01:04:14.706Z,1.42
2022-09-24T01:06:41.315Z,1.88
2022-09-24T01:09:08.251Z,1.30
2022-09-24T01:11:53.443Z,1.63
2022-09-24T01:14:26.927Z,1.60
2022-09-24T01:17:04.159Z,1.20
2022-09-24T01:19:37.523Z,1.50
2022-09-24T01:22:07.330Z,1.20
2022-09-24T01:24:46.057Z,1.50
2022-09-24T01:27:27.177Z,1.63
2022-09-24T01:32:32.354Z,1.63
2022-09-24T01:35:01.885Z,1.60
2022-09-24T01:37:31.640Z,1.83
2022-09-24T01:39:58.819Z,1.30
2022-09-24T01:42:27.245Z,1.30
2022-09-24T01:44:54.761Z,1.27
2022-09-24T01:47:34.547Z,1.40
2022-09-24T01:50:01.772Z,1.95
2022-09-24T01:52:32.036Z,1.60
2022-09-24T01:55:00.054Z,1.58
2022-09-24T01:57:31.891Z,1.70
2022-09-24T02:00:11.193Z,1.75
2022-09-24T02:02:45.352Z,1.63
2022-09-24T02:05:18.619Z,1.60
2022-09-24T02:07:47.959Z,1.42
2022-09-24T02:10:18.375Z,1.63
2022-09-24T02:12:46.617Z,1.63
2022-09-24T02:15:12.995Z,1.40
2022-09-24T02:17:41.778Z,1.77
2022-09-24T02:20:11.326Z,1.50
2022-09-24T02:22:38.526Z,1.70
2022-09-24T02:25:05.750Z,1.50
2022-09-24T02:27:32.166Z,1.50
2022-09-24T02:29:59.498Z,1.48
2022-09-24T02:32:30.419Z,1.70
2022-09-24T02:35:03.150Z,1.60
2022-09-24T02:37:29.722Z,2.03
2022-09-24T02:39:56.134Z,1.77
2022-09-24T02:42:22.757Z,1.50
2022-09-24T02:44:49.207Z,1.55
2022-09-24T02:47:15.574Z,1.85
2022-09-24T02:49:41.922Z,1.63
2022-09-24T02:52:08.378Z,1.25
2022-09-24T02:54:34.714Z,1.75
2022-09-24T02:57:01.124Z,1.80
2022-09-24T02:59:27.455Z,1.60
2022-09-24T03:01:54.031Z,1.80
2022-09-24T03:04:21.770Z,1.40
2022-09-24T03:06:51.200Z,1.40
2022-09-24T03:09:17.601Z,1.45
2022-09-24T03:11:43.924Z,1.30
2022-09-24T03:14:10.301Z,1.80
2022-09-24T03:16:36.676Z,1.40
2022-09-24T03:19:03.285Z,1.77
2022-09-24T03:21:29.998Z,1.60
2022-09-24T03:24:00.198Z,1.48
2022-09-24T03:26:27.202Z,1.75
2022-09-24T03:28:53.529Z,1.38
2022-09-24T03:31:19.921Z,1.73
2022-09-24T03:33:47.515Z,1.38
2022-09-24T03:36:19.147Z,2.10
2022-09-24T03:38:46.105Z,1.42
2022-09-24T03:41:13.121Z,1.50
2022-09-24T03:43:39.659Z,1.73
2022-09-24T03:46:09.521Z,1.45
2022-09-24T03:48:36.524Z,1.65
2022-09-24T03:51:20.950Z,1.52
2022-09-24T03:53:48.014Z,1.58
2022-09-24T03:56:14.632Z,1.58
2022-09-24T03:58:41.856Z,1.77
2022-09-24T04:01:13.017Z,1.70
2022-09-24T04:03:40.550Z,1.50
2022-09-24T04:06:07.128Z,1.58
2022-09-24T04:08:33.565Z,2.30
2022-09-24T04:11:00.162Z,1.70
2022-09-24T04:13:26.666Z,1.50
2022-09-24T04:15:53.749Z,1.40
2022-09-24T04:18:23.216Z,1.88
2022-09-24T04:20:49.662Z,1.80
2022-09-24T04:23:15.984Z,1.60
2022-09-24T04:25:42.400Z,1.48
2022-09-24T04:28:09.793Z,1.50
2022-09-24T04:30:36.698Z,1.77
2022-09-24T04:33:03.486Z,1.45
2022-09-24T04:35:35.865Z,1.52
2022-09-24T04:38:02.881Z,1.55
2022-09-24T04:40:30.094Z,1.60
2022-09-24T04:42:56.579Z,1.73
2022-09-24T04:45:24.884Z,1.63
2022-09-24T04:47:57.341Z,1.50
2022-09-24T04:50:27.625Z,1.60
2022-09-24T04:52:54.423Z,1.73
2022-09-24T04:55:21.126Z,1.70
2022-09-24T04:57:47.885Z,1.58
2022-09-24T05:00:16.011Z,1.65
2022-09-24T05:02:42.611Z,1.50
2022-09-24T05:05:09.641Z,1.60
2022-09-24T05:07:36.350Z,1.60
2022-09-24T05:10:02.909Z,1.77
2022-09-24T05:12:29.364Z,1.40
2022-09-24T05:14:55.709Z,1.60
2022-09-24T05:17:23.245Z,1.45
2022-09-24T05:19:49.610Z,1.73
2022-09-24T05:22:16.065Z,1.60
2022-09-24T05:24:42.389Z,1.55
2022-09-24T05:27:10.004Z,2.00
2022-09-24T05:29:40.135Z,1.52
2022-09-24T05:32:07.674Z,1.37
2022-09-24T05:34:34.580Z,1.20
2022-09-24T05:37:03.388Z,1.48
2022-09-24T05:39:33.932Z,1.77
2022-09-24T05:42:02.250Z,1.70
2022-09-24T05:44:28.823Z,1.75
2022-09-24T05:46:55.284Z,1.50
2022-09-24T05:49:21.673Z,1.50
2022-09-24T05:51:49.453Z,1.45
2022-09-24T05:54:16.619Z,1.90
2022-09-24T05:56:43.198Z,2.13
2022-09-24T05:59:09.668Z,2.10
2022-09-24T06:01:36.290Z,2.33
2022-09-24T06:04:08.431Z,2.08
2022-09-24T06:06:35.522Z,2.38
2022-09-24T06:09:01.919Z,2.33
2022-09-24T06:11:39.666Z,2.72
2022-09-24T06:14:08.451Z,2.47
2022-09-24T06:16:35.416Z,2.60
2022-09-24T06:19:01.991Z,2.65
2022-09-24T06:21:28.447Z,2.38
2022-09-24T06:23:54.834Z,4.05
2022-09-24T06:26:21.314Z,3.08
2022-09-24T06:28:47.748Z,3.95
2022-09-24T06:31:14.256Z,3.63
2022-09-24T06:33:40.984Z,3.50
2022-09-24T06:36:07.563Z,3.40
2022-09-24T06:38:39.308Z,4.55
2022-09-24T06:41:06.458Z,2.55
2022-09-24T06:43:33.451Z,3.08
2022-09-24T06:46:00.081Z,3.28
2022-09-24T06:48:26.957Z,2.30
2022-09-24T06:50:54.594Z,1.98
2022-09-24T06:53:20.982Z,2.70
2022-09-24T06:55:47.813Z,2.50
2022-09-24T06:58:15.812Z,2.60
2022-09-24T07:00:43.244Z,2.10
2022-09-24T07:03:13.712Z,2.42
2022-09-24T07:05:43.557Z,2.28
2022-09-24T07:08:10.676Z,2.25
2022-09-24T07:10:39.668Z,2.38
2022-09-24T07:13:06.060Z,2.17
2022-09-24T07:15:32.420Z,1.88
2022-09-24T07:17:58.777Z,2.35
2022-09-24T07:20:28.210Z,2.00
2022-09-24T07:22:55.815Z,2.05
2022-09-24T07:25:22.268Z,2.03
2022-09-24T07:27:48.648Z,1.83
2022-09-24T07:30:15.062Z,1.92
2022-09-24T07:32:41.430Z,1.95
2022-09-24T07:35:07.896Z,1.90
2022-09-24T07:37:34.327Z,1.83
2022-09-24T07:40:00.740Z,1.67
2022-09-24T07:42:27.953Z,2.00
2022-09-24T07:44:56.588Z,2.10
2022-09-24T07:47:23.109Z,1.90
2022-09-24T07:49:49.477Z,2.25
2022-09-24T07:52:15.820Z,2.10
2022-09-24T07:54:42.229Z,1.98
2022-09-24T07:57:13.577Z,2.17
2022-09-24T07:59:40.497Z,1.90
2022-09-24T08:02:13.936Z,2.45
2022-09-24T08:04:40.529Z,2.15
2022-09-24T08:07:06.894Z,1.92
2022-09-24T08:09:33.255Z,1.85
2022-09-24T08:11:59.698Z,1.95
2022-09-24T08:14:26.044Z,2.67
2022-09-24T08:16:52.423Z,3.38
2022-09-24T08:19:18.905Z,2.20
2022-09-24T08:21:45.253Z,1.90
2022-09-24T08:24:12.023Z,1.92
2022-09-24T08:26:38.468Z,2.03
2022-09-24T08:29:04.845Z,1.88
2022-09-24T08:31:31.415Z,2.33
2022-09-24T08:33:57.816Z,1.98
2022-09-24T08:36:24.220Z,2.30
2022-09-24T08:38:54.848Z,2.60
2022-09-24T08:41:21.264Z,2.03
2022-09-24T08:44:12.019Z,2.03
2022-09-24T08:47:06.055Z,1.70
2022-09-24T08:49:37.690Z,1.55
2022-09-24T08:52:11.490Z,1.92
2022-09-24T08:54:38.349Z,2.15
2022-09-24T08:57:09.280Z,2.25
2022-09-24T09:02:13.347Z,1.80
2022-09-24T09:04:54.154Z,2.10
2022-09-24T09:07:22.561Z,2.33
2022-09-24T09:10:03.964Z,2.17
2022-09-24T09:12:30.429Z,2.20
2022-09-24T09:15:05.084Z,2.20
2022-09-24T09:17:49.578Z,2.10
2022-09-24T09:20:24.482Z,2.50
2022-09-24T09:22:51.997Z,2.97
2022-09-24T09:25:20.440Z,2.00
2022-09-24T09:27:51.287Z,1.75
2022-09-24T09:30:22.179Z,2.28
2022-09-24T09:35:35.437Z,2.20
2022-09-24T09:38:12.665Z,2.45
2022-09-24T09:40:45.932Z,2.30
2022-09-24T09:43:14.730Z,2.40
2022-09-24T09:45:59.649Z,2.33
2022-09-24T09:48:28.304Z,2.00
2022-09-24T09:51:06.059Z,2.10
2022-09-24T09:53:33.042Z,2.17
2022-09-24T09:56:06.680Z,2.20
2022-09-24T09:58:41.693Z,2.00
2022-09-24T10:01:09.706Z,1.98
2022-09-24T10:03:46.465Z,3.00
2022-09-24T10:06:14.005Z,2.10
2022-09-24T10:08:40.673Z,2.20
2022-09-24T10:11:14.420Z,2.03
2022-09-24T10:13:40.746Z,2.40
2022-09-24T10:16:09.968Z,2.25
2022-09-24T10:18:36.375Z,2.10
2022-09-24T10:21:09.033Z,2.13
2022-09-24T10:23:37.727Z,2.10
2022-09-24T10:26:04.600Z,2.30
2022-09-24T10:28:50.119Z,2.13
2022-09-24T10:31:22.105Z,2.50
2022-09-24T10:33:50.253Z,2.00
2022-09-24T10:36:20.754Z,2.28
2022-09-24T10:38:47.163Z,2.55
2022-09-24T10:41:24.005Z,1.98
2022-09-24T10:43:51.519Z,2.30
2022-09-24T10:46:28.653Z,1.95
2022-09-24T10:49:05.794Z,1.80
2022-09-24T10:51:42.805Z,2.10
2022-09-24T10:54:27.942Z,2.60
2022-09-24T10:56:56.617Z,2.05
2022-09-24T10:59:46.907Z,1.83
2022-09-24T11:02:13.293Z,2.17
2022-09-24T11:04:58.565Z,2.40
2022-09-24T11:07:44.702Z,2.30
2022-09-24T11:10:23.388Z,2.22
2022-09-24T11:12:56.720Z,1.90
2022-09-24T11:15:32.227Z,2.33
2022-09-24T11:18:01.570Z,2.40
2022-09-24T11:20:35.430Z,2.28
2022-09-24T11:23:20.384Z,2.47
2022-09-24T11:26:10.107Z,2.13
2022-09-24T11:28:55.347Z,2.47
2022-09-24T11:31:31.123Z,2.55
2022-09-24T11:34:15.790Z,2.00
2022-09-24T11:36:52.533Z,2.10
2022-09-24T11:39:27.499Z,2.20
2022-09-24T11:41:57.690Z,2.70
2022-09-24T11:44:42.935Z,2.25
2022-09-24T11:47:15.407Z,2.40
2022-09-24T11:49:41.731Z,2.80
2022-09-24T11:52:21.226Z,2.72
2022-09-24T11:55:10.075Z,2.28
2022-09-24T11:57:55.215Z,2.28
2022-09-24T12:00:21.594Z,2.55
2022-09-24T12:02:50.327Z,2.72
2022-09-24T12:05:16.682Z,2.40
2022-09-24T12:07:51.745Z,2.70
2022-09-24T12:10:35.429Z,3.22
2022-09-24T12:13:14.123Z,3.13
2022-09-24T12:15:43.953Z,2.58
2022-09-24T12:18:20.150Z,3.00
2022-09-24T12:20:51.842Z,2.70
2022-09-24T12:23:21.567Z,2.80
2022-09-24T12:25:49.187Z,2.80
2022-09-24T12:28:36.734Z,3.72
2022-09-24T12:31:23.871Z,3.80
2022-09-24T12:33:50.252Z,3.13
2022-09-24T12:36:19.691Z,3.55
2022-09-24T12:39:03.841Z,3.40
2022-09-24T12:41:35.659Z,3.33
2022-09-24T12:44:21.098Z,3.40
2022-09-24T12:46:51.878Z,4.03
2022-09-24T12:49:27.577Z,3.43
2022-09-24T12:51:55.086Z,3.40
2022-09-24T12:54:21.765Z,3.20
2022-09-24T12:56:48.268Z,3.75
2022-09-24T12:59:24.610Z,3.80
2022-09-24T13:01:51.016Z,3.45
2022-09-24T13:04:17.869Z,3.13
2022-09-24T13:06:46.655Z,3.15
2022-09-24T13:09:32.249Z,3.92
2022-09-24T13:12:18.797Z,3.75
2022-09-24T13:15:00.181Z,4.00
2022-09-24T13:17:27.349Z,3.63
2022-09-24T13:19:58.363Z,2.92
2022-09-24T13:22:27.829Z,3.95
2022-09-24T13:25:09.245Z,3.55
2022-09-24T13:27:41.325Z,3.70
2022-09-24T13:30:18.411Z,3.42
2022-09-24T13:32:58.692Z,3.22
2022-09-24T13:35:28.918Z,3.45
2022-09-24T13:38:06.880Z,3.40
2022-09-24T13:40:35.290Z,3.25
2022-09-24T13:43:07.677Z,3.78
2022-09-24T13:45:34.706Z,3.80
2022-09-24T13:48:05.161Z,3.55
2022-09-24T13:50:32.503Z,3.40
2022-09-24T13:53:01.923Z,3.53
2022-09-24T13:55:33.994Z,2.95
2022-09-24T13:58:02.842Z,2.95
2022-09-24T14:00:31.381Z,3.10
2022-09-24T14:03:03.462Z,2.85
2022-09-24T14:05:31.337Z,2.60
2022-09-24T14:08:12.816Z,2.88
2022-09-24T14:10:40.265Z,2.70
2022-09-24T14:13:14.217Z,2.97
2022-09-24T14:16:00.755Z,2.83
2022-09-24T14:18:28.498Z,3.03
2022-09-24T14:20:58.037Z,2.42
2022-09-24T14:23:25.660Z,2.65
2022-09-24T14:25:52.939Z,2.67
2022-09-24T14:28:19.874Z,2.40
2022-09-24T14:30:52.362Z,2.42
2022-09-24T14:33:21.105Z,2.42
2022-09-24T14:35:49.377Z,2.45
2022-09-24T14:38:20.191Z,2.80
2022-09-24T14:40:51.365Z,2.55
2022-09-24T14:43:20.814Z,2.25
2022-09-24T14:45:47.698Z,2.42
2022-09-24T14:48:30.526Z,2.47
2022-09-24T14:50:56.995Z,2.55
2022-09-24T14:53:25.344Z,2.75
2022-09-24T14:55:51.967Z,2.55
2022-09-24T14:58:24.262Z,2.53
2022-09-24T15:00:54.659Z,2.53
2022-09-24T15:03:25.930Z,2.80
2022-09-24T15:05:52.591Z,2.83
2022-09-24T15:08:21.874Z,2.50
2022-09-24T15:10:51.934Z,2.80
2022-09-24T15:13:21.067Z,2.73
2022-09-24T15:15:47.659Z,2.15
2022-09-24T15:18:17.195Z,2.70
2022-09-24T15:20:44.302Z,2.47
2022-09-24T15:23:10.680Z,2.70
2022-09-24T15:25:37.179Z,2.70
2022-09-24T15:28:04.811Z,2.70
2022-09-24T15:30:31.215Z,2.60
2022-09-24T15:32:57.607Z,2.70
2022-09-24T15:35:27.125Z,2.75
2022-09-24T15:37:53.601Z,3.00
2022-09-24T15:40:23.027Z,3.13
2022-09-24T15:42:50.374Z,3.42
2022-09-24T15:45:18.111Z,4.05
2022-09-24T15:47:44.463Z,3.28
2022-09-24T15:50:11.918Z,3.05
2022-09-24T15:52:53.098Z,3.40
2022-09-24T15:55:20.897Z,3.42
2022-09-24T15:57:47.630Z,2.80
2022-09-24T16:00:18.536Z,3.50
2022-09-24T16:05:12.537Z,5.68
2022-09-24T16:07:39.062Z,3.08
2022-09-24T16:10:05.626Z,3.13
2022-09-24T16:12:32.941Z,2.58
2022-09-24T16:15:00.645Z,3.13
2022-09-24T16:17:27.648Z,3.45
2022-09-24T16:19:54.099Z,3.25
2022-09-24T16:22:20.909Z,3.00
2022-09-24T16:24:47.416Z,3.55
2022-09-24T16:27:13.804Z,3.50
2022-09-24T16:29:40.309Z,3.10
2022-09-24T16:32:06.791Z,3.10
2022-09-24T16:34:33.228Z,2.83
2022-09-24T16:36:59.555Z,3.10
2022-09-24T16:39:25.988Z,3.00
2022-09-24T16:41:52.410Z,3.63
2022-09-24T16:44:19.327Z,2.50
2022-09-24T16:46:45.895Z,2.92
2022-09-24T16:49:12.596Z,2.92
2022-09-24T16:51:39.065Z,2.83
2022-09-24T16:54:05.887Z,3.22
2022-09-24T16:56:32.221Z,3.05
2022-09-24T16:58:58.694Z,3.00
2022-09-24T17:01:25.118Z,2.95
2022-09-24T17:03:52.579Z,3.00
2022-09-24T17:06:23.418Z,2.45
2022-09-24T17:09:08.570Z,2.78
2022-09-24T17:11:35.429Z,2.83
2022-09-24T17:14:02.053Z,2.20
2022-09-24T17:16:29.298Z,2.70
2022-09-24T17:18:55.859Z,2.28
2022-09-24T17:21:22.634Z,2.40
2022-09-24T17:23:49.292Z,2.50
2022-09-24T17:26:16.938Z,2.35
2022-09-24T17:28:44.904Z,2.67
2022-09-24T17:31:12.511Z,2.22
2022-09-24T17:33:43.466Z,2.97
2022-09-24T17:36:12.154Z,2.70
2022-09-24T17:38:38.853Z,2.95
2022-09-24T17:41:12.830Z,2.20
2022-09-24T17:43:39.714Z,2.95
2022-09-24T17:46:12.912Z,2.40
2022-09-24T17:48:44.711Z,2.85
2022-09-24T17:51:16.181Z,2.95
2022-09-24T17:53:43.014Z,3.05
2022-09-24T17:56:10.926Z,3.10
2022-09-24T17:58:38.323Z,2.92
2022-09-24T18:01:08.928Z,2.95
2022-09-24T18:03:35.373Z,3.30
2022-09-24T18:06:06.609Z,3.15
2022-09-24T18:08:36.317Z,3.00
2022-09-24T18:11:07.224Z,3.28
2022-09-24T18:16:08.330Z,3.17
2022-09-24T18:18:36.523Z,3.05
2022-09-24T18:21:03.888Z,2.95
2022-09-24T18:23:30.506Z,3.38
2022-09-24T18:26:10.450Z,3.47
2022-09-24T18:28:41.528Z,2.90
2022-09-24T18:31:08.993Z,3.20
2022-09-24T18:33:36.085Z,3.70
2022-09-24T18:36:03.590Z,3.95
2022-09-24T18:38:32.954Z,3.22
2022-09-24T18:41:07.199Z,3.20
2022-09-24T18:43:33.663Z,3.50
2022-09-24T18:46:07.358Z,3.03
2022-09-24T18:48:34.069Z,2.97
2022-09-24T18:51:00.472Z,3.10
2022-09-24T18:53:26.925Z,3.15
2022-09-24T18:55:53.313Z,2.83
2022-09-24T18:58:19.784Z,3.38
2022-09-24T19:00:54.122Z,2.70
2022-09-24T19:03:21.654Z,2.70
2022-09-24T19:05:49.400Z,3.53
2022-09-24T19:08:15.984Z,2.78
2022-09-24T19:10:42.709Z,4.00
2022-09-24T19:13:09.465Z,3.17
2022-09-24T19:15:36.557Z,3.30
2022-09-24T19:18:06.969Z,2.80
2022-09-24T19:20:37.251Z,3.00
2022-09-24T19:23:03.848Z,3.22
2022-09-24T19:25:34.333Z,3.05
2022-09-24T19:28:01.895Z,3.42
2022-09-24T19:30:28.486Z,3.15
2022-09-24T19:32:54.949Z,3.40
2022-09-24T19:35:21.280Z,3.20
2022-09-24T19:37:47.664Z,3.40
2022-09-24T19:40:19.522Z,3.28
2022-09-24T19:42:47.054Z,3.00
2022-09-24T19:45:13.538Z,2.90
2022-09-24T19:47:39.873Z,2.95
2022-09-24T19:50:06.363Z,2.88
2022-09-24T19:52:32.757Z,3.05
2022-09-24T19:54:59.286Z,2.70
2022-09-24T19:57:25.670Z,2.78
2022-09-24T19:59:51.989Z,2.80
2022-09-24T20:02:18.463Z,2.80
2022-09-24T20:04:44.876Z,2.72
2022-09-24T20:07:11.310Z,2.90
2022-09-24T20:09:37.649Z,2.70
2022-09-24T20:12:04.594Z,2.53
2022-09-24T20:14:33.660Z,3.08
2022-09-24T20:17:00.881Z,3.20
2022-09-24T20:19:27.259Z,2.90
2022-09-24T20:21:57.369Z,2.80
2022-09-24T20:24:23.761Z,2.90
2022-09-24T20:27:08.878Z,2.83
2022-09-24T20:29:35.308Z,3.13
2022-09-24T20:32:01.857Z,2.97
2022-09-24T20:34:31.684Z,2.60
2022-09-24T20:37:01.612Z,2.78
2022-09-24T20:39:28.785Z,2.83
2022-09-24T20:41:55.550Z,2.78
2022-09-24T20:44:24.481Z,2.55
2022-09-24T20:46:51.216Z,2.92
2022-09-24T20:49:22.239Z,2.90
2022-09-24T20:54:19.463Z,2.97
2022-09-24T20:56:46.078Z,2.63
2022-09-24T20:59:12.637Z,2.70
2022-09-24T21:01:39.399Z,2.83
2022-09-24T21:04:05.871Z,2.72
2022-09-24T21:06:32.393Z,2.83
2022-09-24T21:08:58.817Z,3.30
2022-09-24T21:11:29.006Z,3.03
2022-09-24T21:13:57.102Z,3.30
2022-09-24T21:16:25.007Z,2.63
2022-09-24T21:18:54.207Z,3.05
2022-09-24T21:21:22.566Z,3.55
2022-09-24T21:23:50.855Z,3.00
2022-09-24T21:26:23.575Z,2.70
2022-09-24T21:28:53.448Z,2.92
2022-09-24T21:31:22.083Z,2.28
2022-09-24T21:33:49.980Z,2.88
2022-09-24T21:36:19.416Z,2.92
2022-09-24T21:38:53.685Z,2.90
2022-09-24T21:41:21.917Z,2.88
2022-09-24T21:43:48.265Z,3.08
2022-09-24T21:46:14.775Z,2.72
2022-09-24T21:48:41.235Z,3.05
2022-09-24T21:51:09.067Z,3.40
2022-09-24T21:53:36.165Z,3.33
2022-09-24T21:56:03.151Z,2.95
2022-09-24T21:58:29.899Z,2.90
2022-09-24T22:00:56.717Z,2.97
2022-09-24T22:03:23.180Z,3.10
2022-09-24T22:05:49.559Z,3.33
2022-09-24T22:08:20.014Z,3.10
2022-09-24T22:10:46.380Z,3.42
2022-09-24T22:13:17.073Z,3.47
2022-09-24T22:15:44.834Z,3.10
2022-09-24T22:18:11.635Z,3.53
2022-09-24T22:20:42.782Z,3.22
2022-09-24T22:23:10.008Z,3.30
2022-09-24T22:25:36.546Z,3.10
2022-09-24T22:28:03.070Z,3.30
2022-09-24T22:30:31.558Z,3.17
2022-09-24T22:32:57.952Z,3.47
2022-09-24T22:35:43.589Z,3.80
2022-09-24T22:38:10.113Z,3.45
2022-09-24T22:40:36.749Z,3.08
2022-09-24T22:43:03.233Z,2.95
2022-09-24T22:45:29.574Z,3.20
2022-09-24T22:47:56.659Z,3.20
2022-09-24T22:50:23.023Z,3.95
2022-09-24T22:52:49.555Z,3.45
2022-09-24T22:55:16.143Z,3.22
2022-09-24T22:57:45.471Z,2.67
2022-09-24T23:00:13.958Z,3.22
2022-09-24T23:02:40.461Z,3.25
2022-09-24T23:05:07.529Z,3.45
2022-09-24T23:07:33.933Z,3.35
2022-09-24T23:10:00.263Z,3.28
2022-09-24T23:12:31.253Z,3.40
2022-09-24T23:17:24.489Z,3.33
2022-09-24T23:19:51.974Z,3.28
2022-09-24T23:22:21.557Z,3.17
2022-09-24T23:24:49.457Z,3.58
2022-09-24T23:27:16.696Z,3.10
2022-09-24T23:29:43.583Z,3.17
2022-09-24T23:32:10.549Z,3.25
2022-09-24T23:34:38.057Z,3.17
2022-09-24T23:37:04.440Z,3.28
2022-09-24T23:39:30.870Z,3.25
2022-09-24T23:41:57.218Z,3.95
2022-09-24T23:44:23.877Z,3.42
2022-09-24T23:46:50.283Z,3.88
2022-09-24T23:49:16.865Z,3.30
2022-09-24T23:51:44.098Z,3.58
2022-09-24T23:54:10.704Z,3.30
2022-09-24T23:56:37.138Z,3.25
2022-09-24T23:59:03.526Z,3.30
